»·PEaware :: FDX27 KSFO-KSAN

FDX27 :: KSFO-KSAN

FLIGHT INFORMATION

Flight Status: Arrived
Operator:
Federal Express
More flights by this operator :: More flights under this callsign
Pilot: Matthew M. (8235)
Aircraft: Unknown
(B77L)
More flights by this aircraft type
Origin: KSFO San Francisco Intl
United States
Destination: KSAN San Diego Intl-Lindbergh
United States
More flights between these airports :: More routes between these airports
Route: +OFFSH1 MCKEY LAX COMIX1
File this flight plan on PilotEdge
Remarks:
Altitude:
(Current/Filed)
37,000ft
Speed:
(Current/Filed)
450kts
Departed: 28-Jul-18 09:26 AM
Arrived: 28-Jul-18 10:33 AM
Distance/Time
Traveled:
388nm/1:07
Distance/Time
To Go:
Arrived

Flight Plot

Page will automatically refresh every two minutes.

Flight plan parsing failed; only flown route is shown


Map Options




Map Legend


Flown Route
Filed Route
Departure Airport
Arrival Airport
Navaid (VOR, NDB)
Fix

Horizontal Profiles

Position Reports

Time Latitude Longitude Heading Altitude Ground
Speed
28-Jul-18 08:48 37.636091 -122.387588 60 26ft 0kts
28-Jul-18 08:49 37.636091 -122.387588 60 26ft 0kts
28-Jul-18 08:50 37.636091 -122.387588 60 26ft 0kts
28-Jul-18 08:51 37.636091 -122.387588 60 26ft 0kts
28-Jul-18 08:52 37.636091 -122.387588 60 26ft 0kts
28-Jul-18 08:53 37.636091 -122.387588 60 26ft 0kts
28-Jul-18 08:54 37.636091 -122.387588 60 26ft 0kts
28-Jul-18 08:55 37.636091 -122.387588 60 26ft 0kts
28-Jul-18 08:56 37.636091 -122.387588 60 26ft 0kts
28-Jul-18 08:57 37.636091 -122.387588 60 26ft 0kts
28-Jul-18 08:58 37.636091 -122.387588 60 26ft 0kts
28-Jul-18 08:59 37.636091 -122.387588 60 26ft 0kts
28-Jul-18 09:00 37.636091 -122.387588 60 26ft 0kts
28-Jul-18 09:01 37.636091 -122.387588 60 26ft 0kts
28-Jul-18 09:02 37.636091 -122.387588 60 26ft 0kts
28-Jul-18 09:03 37.636091 -122.387588 60 26ft 0kts
28-Jul-18 09:04 37.636091 -122.387588 60 26ft 0kts
28-Jul-18 09:06 37.636091 -122.387588 60 26ft 0kts
28-Jul-18 09:07 37.636091 -122.387588 60 26ft 0kts
28-Jul-18 09:08 37.636091 -122.387588 60 26ft 0kts
28-Jul-18 09:09 37.636091 -122.387588 60 26ft 0kts
28-Jul-18 09:10 37.636091 -122.387588 60 26ft 0kts
28-Jul-18 09:11 37.636091 -122.387588 60 26ft 0kts
28-Jul-18 09:12 37.635941 -122.388209 100 26ft 2kts
28-Jul-18 09:13 37.636232 -122.388720 149 26ft 0kts
28-Jul-18 09:14 37.636232 -122.388720 149 26ft 0kts
28-Jul-18 09:15 37.636232 -122.388720 149 26ft 0kts
28-Jul-18 09:16 37.636232 -122.388720 149 26ft 0kts
28-Jul-18 09:17 37.635513 -122.388531 183 26ft 18kts
28-Jul-18 09:18 37.632118 -122.391523 194 26ft 14kts
28-Jul-18 09:19 37.629900 -122.392009 148 26ft 16kts
28-Jul-18 09:20 37.627133 -122.385858 117 26ft 19kts
28-Jul-18 09:21 37.624921 -122.380602 117 26ft 18kts
28-Jul-18 09:22 37.622276 -122.374278 118 26ft 15kts
28-Jul-18 09:23 37.619482 -122.367620 118 26ft 22kts
28-Jul-18 09:24 37.616981 -122.361646 117 26ft 17kts
28-Jul-18 09:25 37.614936 -122.356982 132 26ft 7kts
28-Jul-18 09:26 37.613762 -122.357333 241 26ft 16kts
28-Jul-18 09:27 37.624720 -122.383648 298 807ft 172kts
28-Jul-18 09:28 37.652820 -122.445820 299 2798ft 246kts
28-Jul-18 09:29 37.659666 -122.530809 238 3705ft 280kts
28-Jul-18 09:30 37.608875 -122.607897 232 7835ft 291kts
28-Jul-18 09:31 37.556303 -122.689526 232 11389ft 318kts
28-Jul-18 09:32 37.464496 -122.702695 169 13954ft 388kts
28-Jul-18 09:33 37.353808 -122.673644 170 17425ft 414kts
28-Jul-18 09:34 37.238334 -122.644148 169 20819ft 432kts
28-Jul-18 09:35 37.118411 -122.612691 170 23828ft 448kts
28-Jul-18 09:36 36.994708 -122.580398 170 26535ft 463kts
28-Jul-18 09:37 36.866961 -122.547165 171 29236ft 475kts
28-Jul-18 09:38 36.737183 -122.513516 171 32451ft 467kts
28-Jul-18 09:39 36.611793 -122.480928 173 35306ft 456kts
28-Jul-18 09:40 36.488169 -122.449106 173 37059ft 452kts
28-Jul-18 09:41 36.375894 -122.379493 136 37065ft 483kts
28-Jul-18 09:42 36.293888 -122.246423 135 37060ft 484kts
28-Jul-18 09:43 36.207060 -122.119218 137 37055ft 481kts
28-Jul-18 09:44 36.120468 -121.993009 137 37055ft 482kts
28-Jul-18 09:45 36.033453 -121.867241 137 37053ft 482kts
28-Jul-18 09:46 35.946151 -121.741661 137 37054ft 481kts
28-Jul-18 09:47 35.858670 -121.616290 137 37051ft 482kts
28-Jul-18 09:48 35.771240 -121.491447 137 37042ft 482kts
28-Jul-18 09:49 35.683441 -121.366362 136 37031ft 482kts
28-Jul-18 09:50 35.595868 -121.242036 137 37033ft 481kts
28-Jul-18 09:51 35.507895 -121.118080 137 37032ft 481kts
28-Jul-18 09:52 35.426253 -120.986764 129 37031ft 488kts
28-Jul-18 09:53 35.350039 -120.849068 130 37030ft 487kts
28-Jul-18 09:54 35.272777 -120.712930 130 37030ft 487kts
28-Jul-18 09:55 35.195758 -120.576800 130 37030ft 487kts
28-Jul-18 09:56 35.118037 -120.440860 130 37034ft 487kts
28-Jul-18 09:57 35.040407 -120.305714 130 37035ft 487kts
28-Jul-18 09:58 34.962640 -120.170862 130 37034ft 486kts
28-Jul-18 09:59 34.884661 -120.036157 130 37030ft 485kts
28-Jul-18 10:00 34.806717 -119.902024 130 37027ft 487kts
28-Jul-18 10:01 34.728250 -119.767497 130 37025ft 486kts
28-Jul-18 10:02 34.650058 -119.633948 130 37042ft 485kts
28-Jul-18 10:03 34.571403 -119.500118 130 37042ft 485kts
28-Jul-18 10:04 34.492878 -119.366990 131 37051ft 485kts
28-Jul-18 10:05 34.414220 -119.234139 130 37048ft 486kts
28-Jul-18 10:06 34.335311 -119.101355 131 37027ft 486kts
28-Jul-18 10:07 34.255881 -118.968181 130 37016ft 487kts
28-Jul-18 10:08 34.176388 -118.835401 130 37023ft 487kts
28-Jul-18 10:09 34.096999 -118.702804 130 37026ft 488kts
28-Jul-18 10:10 34.017247 -118.570703 130 37028ft 488kts
28-Jul-18 10:11 33.937253 -118.438898 131 37029ft 485kts
28-Jul-18 10:12 33.846682 -118.319879 138 37025ft 482kts
28-Jul-18 10:13 33.755337 -118.201538 136 37021ft 483kts
28-Jul-18 10:14 33.664766 -118.082334 137 37024ft 483kts
28-Jul-18 10:15 33.574044 -117.963845 136 36816ft 478kts
28-Jul-18 10:16 33.481939 -117.853536 140 34088ft 455kts
28-Jul-18 10:17 33.394023 -117.748935 136 30496ft 436kts
28-Jul-18 10:18 33.311109 -117.647884 136 26965ft 415kts
28-Jul-18 10:19 33.227487 -117.558114 145 23511ft 394kts
28-Jul-18 10:20 33.139445 -117.485643 144 20194ft 375kts
28-Jul-18 10:21 33.056315 -117.416213 144 17469ft 348kts
28-Jul-18 10:22 32.982487 -117.354253 144 15825ft 307kts
28-Jul-18 10:23 32.915354 -117.298086 144 13847ft 284kts
28-Jul-18 10:24 32.851562 -117.245039 145 11771ft 273kts
28-Jul-18 10:25 32.803387 -117.183300 109 10113ft 254kts
28-Jul-18 10:26 32.787005 -117.101059 105 7954ft 253kts
28-Jul-18 10:27 32.768702 -117.022384 106 6248ft 238kts
28-Jul-18 10:28 32.741182 -116.956988 143 4748ft 217kts
28-Jul-18 10:29 32.690071 -116.972130 236 3752ft 207kts
28-Jul-18 10:30 32.693836 -117.037029 292 2773ft 200kts
28-Jul-18 10:31 32.711406 -117.097001 283 1700ft 175kts
28-Jul-18 10:32 32.723376 -117.147270 282 727ft 148kts
28-Jul-18 10:33 32.734228 -117.192492 286 29ft 95kts
28-Jul-18 10:34 32.734946 -117.198409 177 28ft 0kts
28-Jul-18 10:35 32.734155 -117.196055 105 28ft 18kts
28-Jul-18 10:36 32.732924 -117.190884 106 28ft 7kts
28-Jul-18 10:37 32.732945 -117.190599 50 28ft 0kts
28-Jul-18 10:38 32.732946 -117.190598 50 28ft 0kts

Navigation Log

Ident Type
Flight plan parsing failed, navigation log unavailable